Time;durP1;ratioP1;P1;durP2;ratioP2;P2;SDS_P1;SDS_P2;PMS_P1;PMS_P2;Temp;Humidity;BMP_temperature;BMP_pressure;BME280_temperature;BME280_humidity;BME280_pressure;Samples;Min_cycle;Max_cycle;Signal;HPM_P1;HPM_P2
2021/01/13 00:00:30;;;;;;;39.90;5.75;;;;;;;;;;5029546;28;20461;-47
2021/01/13 00:02:57;;;;;;;42.35;5.22;;;;;;;;;;5034322;28;20042;-48
2021/01/13 00:05:24;;;;;;;39.35;4.93;;;;;;;;;;5032306;28;20389;-44
2021/01/13 00:07:54;;;;;;;40.58;4.78;;;;;;;;;;5023058;28;20033;-48
2021/01/13 00:10:21;;;;;;;41.15;6.03;;;;;;;;;;5034929;28;20024;-47
2021/01/13 00:12:48;;;;;;;48.70;6.38;;;;;;;;;;5031745;28;20017;-46
2021/01/13 00:15:16;;;;;;;56.50;6.55;;;;;;;;;;5033594;28;20022;-46
2021/01/13 00:17:50;;;;;;;43.33;6.35;;;;;;;;;;5032904;28;20101;-46
2021/01/13 00:20:17;;;;;;;60.67;6.10;;;;;;;;;;5033065;28;20087;-42
2021/01/13 00:22:50;;;;;;;62.40;5.80;;;;;;;;;;5032514;28;20033;-45
2021/01/13 00:25:17;;;;;;;36.53;4.40;;;;;;;;;;5034222;28;20044;-48
2021/01/13 00:27:44;;;;;;;50.47;5.15;;;;;;;;;;5031646;28;20127;-42
2021/01/13 00:30:12;;;;;;;36.40;5.03;;;;;;;;;;5029939;28;20546;-41
2021/01/13 00:32:39;;;;;;;43.13;5.38;;;;;;;;;;5034066;28;20029;-42
2021/01/13 00:35:06;;;;;;;30.30;5.15;;;;;;;;;;5032458;28;20028;-41
2021/01/13 00:37:35;;;;;;;37.20;5.35;;;;;;;;;;5029653;28;20453;-44
2021/01/13 00:40:03;;;;;;;47.08;5.43;;;;;;;;;;5032980;28;20033;-45
2021/01/13 00:42:30;;;;;;;53.38;5.40;;;;;;;;;;5033400;28;20079;-44
2021/01/13 00:44:58;;;;;;;36.03;5.80;;;;;;;;;;5032598;28;20079;-48
2021/01/13 00:47:25;;;;;;;34.50;4.32;;;;;;;;;;5033730;28;20013;-42
2021/01/13 00:49:52;;;;;;;35.70;6.05;;;;;;;;;;5032528;28;20018;-43
2021/01/13 00:52:19;;;;;;;25.27;4.35;;;;;;;;;;5033479;28;20017;-43
2021/01/13 00:54:46;;;;;;;29.08;4.90;;;;;;;;;;5033413;28;20048;-44
2021/01/13 00:57:13;;;;;;;33.50;5.15;;;;;;;;;;5033502;28;20377;-42
2021/01/13 00:59:40;;;;;;;30.23;3.97;;;;;;;;;;5033419;28;20172;-42
2021/01/13 01:02:07;;;;;;;33.95;4.25;;;;;;;;;;5034013;28;20477;-42
2021/01/13 01:04:34;;;;;;;25.23;4.82;;;;;;;;;;5033812;28;20477;-43
2021/01/13 01:07:03;;;;;;;25.90;4.55;;;;;;;;;;5033803;28;20106;-44
2021/01/13 01:09:30;;;;;;;38.40;3.75;;;;;;;;;;5017030;28;20041;-43
2021/01/13 01:11:57;;;;;;;37.88;4.68;;;;;;;;;;5030859;28;20017;-45
2021/01/13 01:14:24;;;;;;;22.30;3.65;;;;;;;;;;5033122;28;20052;-44
2021/01/13 01:16:51;;;;;;;38.47;4.97;;;;;;;;;;5029673;28;20022;-44
2021/01/13 01:19:18;;;;;;;43.22;4.97;;;;;;;;;;5033377;28;20018;-43
2021/01/13 01:21:45;;;;;;;26.75;4.38;;;;;;;;;;5033403;28;20036;-43
2021/01/13 01:24:12;;;;;;;31.13;3.92;;;;;;;;;;5033329;28;20048;-44
2021/01/13 01:26:46;;;;;;;30.17;4.22;;;;;;;;;;5033127;28;20536;-43
2021/01/13 01:29:13;;;;;;;32.67;4.43;;;;;;;;;;5020415;28;20029;-44
2021/01/13 01:31:41;;;;;;;40.45;5.07;;;;;;;;;;5033533;28;20107;-46
2021/01/13 01:34:08;;;;;;;29.60;4.53;;;;;;;;;;5030516;28;20109;-45
2021/01/13 01:36:35;;;;;;;36.47;5.20;;;;;;;;;;5030973;28;20029;-47
2021/01/13 01:39:02;;;;;;;31.48;4.60;;;;;;;;;;5030451;28;20052;-47
2021/01/13 01:41:29;;;;;;;25.33;4.78;;;;;;;;;;5033277;28;20025;-45
2021/01/13 01:43:56;;;;;;;32.95;4.40;;;;;;;;;;5032825;28;20086;-46
2021/01/13 01:46:25;;;;;;;35.88;5.70;;;;;;;;;;5032994;28;20468;-46
2021/01/13 01:48:53;;;;;;;34.83;5.13;;;;;;;;;;5032870;28;20029;-45
2021/01/13 01:51:24;;;;;;;40.50;7.78;;;;;;;;;;5032880;28;20017;-44
2021/01/13 01:53:57;;;;;;;35.30;5.00;;;;;;;;;;5011616;28;20055;-46
2021/01/13 01:56:28;;;;;;;37.53;5.35;;;;;;;;;;5004491;28;20027;-46
2021/01/13 01:59:14;;;;;;;30.40;5.53;;;;;;;;;;5013123;28;20014;-45
2021/01/13 02:01:42;;;;;;;28.70;5.55;;;;;;;;;;5012393;28;20060;-46
2021/01/13 02:04:28;;;;;;;37.95;5.97;;;;;;;;;;5011349;28;20498;-45
2021/01/13 02:07:01;;;;;;;34.92;5.72;;;;;;;;;;5012624;28;20395;-46
2021/01/13 02:09:29;;;;;;;32.97;5.60;;;;;;;;;;5012944;28;20022;-46
2021/01/13 02:11:57;;;;;;;30.63;5.53;;;;;;;;;;5012715;28;20022;-45
2021/01/13 02:14:25;;;;;;;34.95;6.35;;;;;;;;;;5012842;28;20022;-47
2021/01/13 02:16:53;;;;;;;38.67;6.72;;;;;;;;;;5012632;28;20018;-52
2021/01/13 02:19:38;;;;;;;38.08;6.55;;;;;;;;;;5012718;28;20458;-45
2021/01/13 02:22:12;;;;;;;32.92;5.28;;;;;;;;;;5012367;28;20025;-46
2021/01/13 02:24:45;;;;;;;28.65;5.80;;;;;;;;;;5011143;28;20026;-46
2021/01/13 02:27:18;;;;;;;26.92;4.75;;;;;;;;;;5012128;28;20018;-44
2021/01/13 02:29:48;;;;;;;22.83;4.80;;;;;;;;;;5012399;28;20585;-46
2021/01/13 02:32:19;;;;;;;19.33;4.88;;;;;;;;;;5011765;28;20088;-46
2021/01/13 02:35:06;;;;;;;30.00;4.80;;;;;;;;;;4997579;28;21106;-44
2021/01/13 02:37:36;;;;;;;20.08;4.45;;;;;;;;;;4996725;28;20436;-43
2021/01/13 02:40:08;;;;;;;24.38;4.63;;;;;;;;;;5000112;28;20485;-43
2021/01/13 02:42:39;;;;;;;28.25;4.68;;;;;;;;;;5011749;28;20394;-43
2021/01/13 02:45:11;;;;;;;24.20;3.88;;;;;;;;;;5012273;28;20433;-44
2021/01/13 02:47:56;;;;;;;19.45;4.20;;;;;;;;;;5011888;28;20018;-45
2021/01/13 02:50:26;;;;;;;31.20;5.18;;;;;;;;;;4995050;28;20046;-45
2021/01/13 02:53:08;;;;;;;26.98;4.90;;;;;;;;;;4999955;28;20014;-44
2021/01/13 02:55:42;;;;;;;22.50;5.18;;;;;;;;;;5029868;28;20025;-45
2021/01/13 02:58:10;;;;;;;18.55;4.22;;;;;;;;;;5028811;28;20018;-43
2021/01/13 03:00:37;;;;;;;17.45;4.13;;;;;;;;;;5030547;28;20030;-44
2021/01/13 03:03:05;;;;;;;19.13;4.35;;;;;;;;;;5030271;28;20489;-43
2021/01/13 03:05:32;;;;;;;31.00;4.57;;;;;;;;;;5013224;28;20025;-44
2021/01/13 03:08:01;;;;;;;20.08;3.78;;;;;;;;;;5030907;28;20021;-43
2021/01/13 03:10:29;;;;;;;29.58;3.90;;;;;;;;;;5031874;28;20017;-43
2021/01/13 03:13:03;;;;;;;16.58;4.32;;;;;;;;;;5013969;28;20394;-43
2021/01/13 03:15:33;;;;;;;23.95;4.07;;;;;;;;;;5031756;28;20025;-46
2021/01/13 03:18:09;;;;;;;18.10;3.67;;;;;;;;;;5031849;28;20044;-44
2021/01/13 03:20:46;;;;;;;23.30;4.28;;;;;;;;;;5014269;28;20021;-44
2021/01/13 03:23:31;;;;;;;23.92;3.58;;;;;;;;;;5032008;28;20670;-44
2021/01/13 03:26:02;;;;;;;25.98;3.38;;;;;;;;;;5032056;28;20025;-43
2021/01/13 03:28:32;;;;;;;18.02;4.03;;;;;;;;;;5031734;28;20067;-43
2021/01/13 03:31:00;;;;;;;18.55;3.45;;;;;;;;;;5013687;28;20389;-42
2021/01/13 03:33:27;;;;;;;18.48;3.33;;;;;;;;;;5031062;28;20022;-45
2021/01/13 03:36:06;;;;;;;16.17;3.38;;;;;;;;;;5031162;28;20036;-50
2021/01/13 03:38:34;;;;;;;21.95;3.90;;;;;;;;;;5031763;28;20100;-44
2021/01/13 03:41:05;;;;;;;21.02;3.55;;;;;;;;;;5019702;28;20044;-44
2021/01/13 03:43:41;;;;;;;15.90;3.75;;;;;;;;;;5031585;28;20064;-45
2021/01/13 03:46:10;;;;;;;14.20;3.05;;;;;;;;;;5031757;28;20092;-43
2021/01/13 03:48:50;;;;;;;16.92;3.35;;;;;;;;;;5031217;28;20385;-45
2021/01/13 03:51:27;;;;;;;16.40;2.80;;;;;;;;;;5031271;28;20014;-44
2021/01/13 03:53:57;;;;;;;16.70;3.30;;;;;;;;;;5030890;28;20037;-45
2021/01/13 03:56:26;;;;;;;18.85;3.65;;;;;;;;;;5031549;28;20420;-44
2021/01/13 03:58:53;;;;;;;20.75;2.78;;;;;;;;;;5013712;28;20020;-48
2021/01/13 04:01:24;;;;;;;13.32;3.22;;;;;;;;;;5031197;28;20093;-44
2021/01/13 04:03:54;;;;;;;8.35;2.25;;;;;;;;;;5031408;28;20039;-45
2021/01/13 04:06:22;;;;;;;12.43;3.10;;;;;;;;;;5031193;28;20405;-46
2021/01/13 04:08:49;;;;;;;12.90;2.45;;;;;;;;;;5030882;28;20029;-51
2021/01/13 04:11:18;;;;;;;12.43;2.55;;;;;;;;;;5031014;28;20027;-44
2021/01/13 04:13:54;;;;;;;13.93;2.85;;;;;;;;;;5031465;28;20025;-44
2021/01/13 04:16:22;;;;;;;12.45;2.55;;;;;;;;;;5030965;28;20025;-44
2021/01/13 04:18:51;;;;;;;8.23;2.03;;;;;;;;;;5030375;28;20021;-44
2021/01/13 04:21:19;;;;;;;11.35;2.45;;;;;;;;;;5030141;28;20036;-43
2021/01/13 04:23:47;;;;;;;15.55;2.65;;;;;;;;;;5029936;28;20473;-44
2021/01/13 04:26:14;;;;;;;15.35;2.60;;;;;;;;;;5031273;28;20013;-45
2021/01/13 04:28:41;;;;;;;13.95;2.78;;;;;;;;;;5031329;28;20520;-44
2021/01/13 04:31:09;;;;;;;9.60;2.00;;;;;;;;;;5031271;28;20021;-44
2021/01/13 04:33:37;;;;;;;11.93;2.42;;;;;;;;;;5031291;28;20056;-44
2021/01/13 04:36:04;;;;;;;10.18;2.47;;;;;;;;;;5030960;28;20584;-44
2021/01/13 04:38:32;;;;;;;7.90;2.38;;;;;;;;;;5030251;28;20045;-44
2021/01/13 04:41:07;;;;;;;11.00;2.35;;;;;;;;;;5031235;28;20370;-44
2021/01/13 04:43:54;;;;;;;11.07;1.88;;;;;;;;;;5031021;28;20038;-44
2021/01/13 04:46:21;;;;;;;19.17;2.85;;;;;;;;;;5031838;28;20104;-44
2021/01/13 04:48:57;;;;;;;7.97;1.80;;;;;;;;;;5034634;28;20029;-44
2021/01/13 04:51:25;;;;;;;13.05;2.10;;;;;;;;;;5034864;28;20014;-46
2021/01/13 04:53:54;;;;;;;9.80;1.98;;;;;;;;;;5034538;28;20048;-44
2021/01/13 04:56:23;;;;;;;5.55;1.40;;;;;;;;;;5034818;28;20045;-45
2021/01/13 04:59:08;;;;;;;7.63;1.75;;;;;;;;;;5034725;28;20477;-44
2021/01/13 05:01:53;;;;;;;8.85;2.22;;;;;;;;;;5034555;28;20028;-44
2021/01/13 05:04:29;;;;;;;8.95;2.00;;;;;;;;;;5034505;28;20067;-44
2021/01/13 05:07:14;;;;;;;11.48;2.00;;;;;;;;;;5034523;28;20394;-46
2021/01/13 05:09:59;;;;;;;8.57;1.88;;;;;;;;;;5034519;28;20358;-44
2021/01/13 05:12:27;;;;;;;7.22;2.05;;;;;;;;;;5034839;28;20030;-45
2021/01/13 05:15:00;;;;;;;16.27;1.95;;;;;;;;;;5034132;28;20025;-46
2021/01/13 05:17:34;;;;;;;11.18;1.58;;;;;;;;;;5033204;28;20026;-46
2021/01/13 05:20:07;;;;;;;11.65;1.55;;;;;;;;;;5032504;28;20060;-47
2021/01/13 05:22:35;;;;;;;7.30;1.50;;;;;;;;;;5033820;28;20040;-46
2021/01/13 05:25:06;;;;;;;10.00;1.73;;;;;;;;;;5034757;28;20017;-46
2021/01/13 05:27:45;;;;;;;5.47;1.40;;;;;;;;;;5034703;28;20025;-46
2021/01/13 05:30:13;;;;;;;8.30;1.70;;;;;;;;;;5034990;28;20079;-47
2021/01/13 05:32:43;;;;;;;8.82;1.63;;;;;;;;;;5034462;28;20025;-45
2021/01/13 05:35:10;;;;;;;8.43;1.20;;;;;;;;;;5034610;28;20049;-49
2021/01/13 05:37:37;;;;;;;8.07;1.27;;;;;;;;;;5034541;28;20030;-46
2021/01/13 05:40:05;;;;;;;12.27;1.50;;;;;;;;;;5016658;28;20030;-46
2021/01/13 05:42:32;;;;;;;5.68;1.75;;;;;;;;;;5034411;28;20029;-49
2021/01/13 05:45:00;;;;;;;3.78;1.30;;;;;;;;;;5019003;28;20034;-45
2021/01/13 05:47:30;;;;;;;5.75;1.15;;;;;;;;;;5014409;28;20500;-45
2021/01/13 05:49:59;;;;;;;4.72;1.00;;;;;;;;;;5021962;28;20068;-47
2021/01/13 05:52:32;;;;;;;6.82;1.20;;;;;;;;;;5014454;28;20026;-46
2021/01/13 05:55:00;;;;;;;7.00;1.27;;;;;;;;;;5014322;28;20046;-45
2021/01/13 05:57:27;;;;;;;6.03;1.40;;;;;;;;;;5014309;28;20022;-46
2021/01/13 05:59:54;;;;;;;6.07;1.20;;;;;;;;;;5014154;28;20076;-45
2021/01/13 06:02:21;;;;;;;4.43;1.05;;;;;;;;;;5014045;28;20091;-46
2021/01/13 06:04:48;;;;;;;5.38;1.40;;;;;;;;;;5014257;28;20037;-46
2021/01/13 06:07:26;;;;;;;2.80;1.02;;;;;;;;;;5014309;28;20033;-43
2021/01/13 06:09:57;;;;;;;8.05;1.50;;;;;;;;;;5020283;28;20645;-44
2021/01/13 06:12:26;;;;;;;3.03;0.80;;;;;;;;;;5033123;28;20034;-47
2021/01/13 06:14:54;;;;;;;4.60;1.13;;;;;;;;;;5015710;28;20018;-46
2021/01/13 06:17:22;;;;;;;4.22;0.95;;;;;;;;;;5033363;28;20031;-47
2021/01/13 06:19:50;;;;;;;4.28;0.98;;;;;;;;;;5032784;28;20065;-54
2021/01/13 06:22:18;;;;;;;2.47;0.90;;;;;;;;;;5014774;28;20052;-54
2021/01/13 06:24:47;;;;;;;4.07;0.80;;;;;;;;;;5033181;28;20029;-52
2021/01/13 06:27:21;;;;;;;5.93;0.90;;;;;;;;;;5033533;28;20025;-55
2021/01/13 06:29:52;;;;;;;6.78;1.10;;;;;;;;;;5033529;28;20026;-54
2021/01/13 06:32:31;;;;;;;2.72;0.85;;;;;;;;;;5033541;28;20025;-52
2021/01/13 06:35:34;;;;;;;4.40;0.90;;;;;;;;;;5033772;28;20022;-51
2021/01/13 06:38:02;;;;;;;2.83;1.17;;;;;;;;;;5033336;28;20473;-54
2021/01/13 06:40:31;;;;;;;5.35;1.10;;;;;;;;;;5033667;28;20025;-51
2021/01/13 06:42:58;;;;;;;3.25;0.80;;;;;;;;;;5033303;28;20021;-46
2021/01/13 06:45:32;;;;;;;3.60;0.98;;;;;;;;;;5033300;28;20036;-51
2021/01/13 06:47:59;;;;;;;4.85;1.35;;;;;;;;;;5033323;28;20021;-51
2021/01/13 06:50:36;;;;;;;5.88;1.45;;;;;;;;;;5033306;28;20075;-55
2021/01/13 06:53:07;;;;;;;5.15;0.82;;;;;;;;;;5032998;28;20026;-45
2021/01/13 06:55:34;;;;;;;3.47;0.85;;;;;;;;;;5033249;28;20030;-49
2021/01/13 06:58:18;;;;;;;2.33;0.60;;;;;;;;;;5033228;28;20022;-51
2021/01/13 07:00:46;;;;;;;5.90;0.77;;;;;;;;;;5033139;28;20035;-55
2021/01/13 07:03:25;;;;;;;3.15;0.77;;;;;;;;;;5033119;28;20029;-53
2021/01/13 07:05:56;;;;;;;2.17;0.73;;;;;;;;;;5032908;28;20389;-55
2021/01/13 07:08:24;;;;;;;1.23;0.55;;;;;;;;;;5033128;28;20481;-45
2021/01/13 07:11:04;;;;;;;7.60;0.88;;;;;;;;;;5032143;28;20084;-45
2021/01/13 07:13:33;;;;;;;4.15;0.90;;;;;;;;;;5032845;28;20372;-46
2021/01/13 07:16:04;;;;;;;4.40;0.70;;;;;;;;;;5033087;28;20025;-46
2021/01/13 07:18:32;;;;;;;2.22;0.70;;;;;;;;;;5032612;28;20385;-45
2021/01/13 07:21:06;;;;;;;3.08;0.93;;;;;;;;;;5014978;28;20021;-47
2021/01/13 07:23:33;;;;;;;4.57;1.17;;;;;;;;;;5032878;28;20033;-46
2021/01/13 07:26:00;;;;;;;4.45;0.80;;;;;;;;;;5032527;28;20033;-45
2021/01/13 07:28:27;;;;;;;1.67;0.60;;;;;;;;;;5032562;28;20045;-49
2021/01/13 07:30:55;;;;;;;1.95;0.65;;;;;;;;;;5032730;28;20018;-46
2021/01/13 07:33:24;;;;;;;3.75;0.90;;;;;;;;;;5032617;28;20377;-45
2021/01/13 07:35:51;;;;;;;4.63;1.02;;;;;;;;;;5032750;28;20393;-46
2021/01/13 07:38:20;;;;;;;5.13;0.75;;;;;;;;;;5032744;28;20022;-47
2021/01/13 07:40:56;;;;;;;1.80;0.60;;;;;;;;;;5032589;28;20021;-46
2021/01/13 07:43:41;;;;;;;4.22;0.80;;;;;;;;;;5032439;28;20033;-49
2021/01/13 07:46:16;;;;;;;7.53;0.98;;;;;;;;;;5032482;28;20080;-47
2021/01/13 07:48:51;;;;;;;5.57;0.70;;;;;;;;;;5032473;28;20032;-49
2021/01/13 07:51:20;;;;;;;6.43;0.63;;;;;;;;;;5032205;28;20021;-47
2021/01/13 07:53:58;;;;;;;3.60;0.93;;;;;;;;;;5014579;28;20081;-46
2021/01/13 07:56:25;;;;;;;8.40;1.27;;;;;;;;;;5014740;28;20018;-46
2021/01/13 07:59:27;;;;;;;5.25;0.93;;;;;;;;;;5032400;28;20080;-46
2021/01/13 08:01:54;;;;;;;2.33;0.80;;;;;;;;;;4971454;28;20027;-47
2021/01/13 08:04:36;;;;;;;4.82;0.85;;;;;;;;;;5020489;28;20069;-47
2021/01/13 08:07:03;;;;;;;2.35;0.68;;;;;;;;;;5032290;28;20026;-45
2021/01/13 08:09:35;;;;;;;6.18;0.70;;;;;;;;;;5032287;28;20031;-48
2021/01/13 08:12:13;;;;;;;4.00;0.70;;;;;;;;;;5032382;28;20398;-46
2021/01/13 08:14:47;;;;;;;1.55;0.77;;;;;;;;;;5032187;28;20033;-47
2021/01/13 08:17:18;;;;;;;4.50;1.27;;;;;;;;;;5032156;28;20163;-48
2021/01/13 08:20:07;;;;;;;6.18;0.82;;;;;;;;;;5032170;28;20431;-46
2021/01/13 08:22:35;;;;;;;2.00;0.73;;;;;;;;;;5035268;28;20102;-47
2021/01/13 08:25:12;;;;;;;3.78;0.90;;;;;;;;;;5036123;28;20032;-46
2021/01/13 08:27:39;;;;;;;3.55;0.80;;;;;;;;;;5036302;28;20068;-45
2021/01/13 08:30:07;;;;;;;2.95;0.60;;;;;;;;;;5036076;28;20021;-46
2021/01/13 08:32:41;;;;;;;4.22;0.70;;;;;;;;;;5035872;28;20048;-45
2021/01/13 08:35:09;;;;;;;3.92;0.60;;;;;;;;;;5036063;28;20022;-46
2021/01/13 08:37:36;;;;;;;3.20;0.85;;;;;;;;;;5017871;28;20408;-46
2021/01/13 08:40:21;;;;;;;5.50;0.77;;;;;;;;;;5035876;28;20035;-46
2021/01/13 08:43:04;;;;;;;3.17;0.60;;;;;;;;;;5035628;28;20160;-45
2021/01/13 08:45:38;;;;;;;1.42;0.68;;;;;;;;;;5035737;28;20017;-46
2021/01/13 08:48:25;;;;;;;7.00;0.63;;;;;;;;;;5035384;28;20032;-46
2021/01/13 08:51:04;;;;;;;4.03;0.80;;;;;;;;;;5035248;28;20033;-46
2021/01/13 08:53:32;;;;;;;2.30;0.85;;;;;;;;;;5035354;28;20403;-46
2021/01/13 08:56:00;;;;;;;4.35;0.60;;;;;;;;;;5035490;28;20025;-48
2021/01/13 08:58:33;;;;;;;3.03;0.70;;;;;;;;;;5017425;28;20063;-46
2021/01/13 09:01:08;;;;;;;6.82;1.42;;;;;;;;;;5035169;28;20500;-46
2021/01/13 09:03:38;;;;;;;5.40;0.70;;;;;;;;;;5035248;28;20044;-46
2021/01/13 09:06:21;;;;;;;2.28;0.70;;;;;;;;;;5035276;28;20017;-46
2021/01/13 09:09:11;;;;;;;4.18;0.80;;;;;;;;;;5035319;28;20040;-46
2021/01/13 09:11:38;;;;;;;3.67;0.90;;;;;;;;;;5035452;28;20025;-47
2021/01/13 09:14:32;;;;;;;2.97;0.65;;;;;;;;;;5035023;28;20465;-46
2021/01/13 09:17:00;;;;;;;2.97;0.63;;;;;;;;;;5033024;28;20042;-47
2021/01/13 09:19:37;;;;;;;3.00;0.70;;;;;;;;;;5034850;28;20049;-47
2021/01/13 09:22:07;;;;;;;4.47;0.70;;;;;;;;;;5035021;28;20080;-47
2021/01/13 09:24:38;;;;;;;4.38;0.73;;;;;;;;;;5034986;28;20450;-46
2021/01/13 09:27:06;;;;;;;8.30;0.98;;;;;;;;;;5035107;28;20022;-46
2021/01/13 09:29:49;;;;;;;4.28;0.80;;;;;;;;;;5034783;28;20462;-46
2021/01/13 09:32:16;;;;;;;3.20;0.88;;;;;;;;;;5034286;28;20508;-47
2021/01/13 09:34:44;;;;;;;6.60;0.95;;;;;;;;;;5034331;28;20034;-46
2021/01/13 09:37:11;;;;;;;3.15;0.98;;;;;;;;;;5034784;28;20030;-46
2021/01/13 09:39:39;;;;;;;7.22;1.17;;;;;;;;;;5034764;28;20025;-46
2021/01/13 09:42:07;;;;;;;11.13;1.65;;;;;;;;;;5034581;28;20151;-56
2021/01/13 09:44:38;;;;;;;7.15;1.38;;;;;;;;;;5034772;28;20044;-57
2021/01/13 09:47:37;;;;;;;6.13;1.25;;;;;;;;;;5034485;28;20389;-56
2021/01/13 09:50:05;;;;;;;8.90;1.60;;;;;;;;;;5001437;28;20030;-55
2021/01/13 09:52:52;;;;;;;7.03;1.35;;;;;;;;;;5034394;28;20112;-56
2021/01/13 09:55:23;;;;;;;9.25;1.42;;;;;;;;;;5034128;28;20108;-55
2021/01/13 09:57:54;;;;;;;7.20;1.23;;;;;;;;;;5034303;28;20100;-56
2021/01/13 10:00:28;;;;;;;14.07;1.73;;;;;;;;;;5034197;28;20034;-55
2021/01/13 10:02:56;;;;;;;9.30;1.20;;;;;;;;;;5034304;28;20472;-56
2021/01/13 10:05:24;;;;;;;7.43;1.58;;;;;;;;;;5034228;28;20017;-55
2021/01/13 10:07:53;;;;;;;8.35;1.13;;;;;;;;;;5034163;28;20026;-55
2021/01/13 10:10:24;;;;;;;15.65;1.60;;;;;;;;;;5034230;28;20096;-56
2021/01/13 10:12:51;;;;;;;12.73;1.25;;;;;;;;;;5034109;28;20013;-53
2021/01/13 10:15:18;;;;;;;9.95;1.65;;;;;;;;;;5034008;28;20026;-52
2021/01/13 10:17:45;;;;;;;10.32;1.55;;;;;;;;;;5034007;28;20026;-56
2021/01/13 10:20:14;;;;;;;9.43;1.38;;;;;;;;;;5033479;28;20079;-55
2021/01/13 10:22:41;;;;;;;24.05;2.42;;;;;;;;;;5033581;28;20028;-54
2021/01/13 10:25:08;;;;;;;11.10;2.00;;;;;;;;;;5034056;28;20017;-56
2021/01/13 10:27:41;;;;;;;21.17;2.42;;;;;;;;;;5033997;28;20021;-55
2021/01/13 10:30:09;;;;;;;16.00;1.83;;;;;;;;;;5033714;28;20028;-54
2021/01/13 10:32:56;;;;;;;8.90;1.38;;;;;;;;;;5033659;28;20060;-55
2021/01/13 10:35:26;;;;;;;21.75;1.88;;;;;;;;;;5033672;28;20063;-54
2021/01/13 10:37:57;;;;;;;17.42;1.65;;;;;;;;;;5033739;28;20014;-56
2021/01/13 10:40:25;;;;;;;9.63;1.50;;;;;;;;;;5033754;28;20486;-54
2021/01/13 10:42:53;;;;;;;10.77;2.30;;;;;;;;;;5033368;28;20051;-51
2021/01/13 10:45:21;;;;;;;12.27;1.95;;;;;;;;;;5033273;28;20064;-52
2021/01/13 10:47:54;;;;;;;26.27;1.60;;;;;;;;;;5033438;28;20101;-55
2021/01/13 10:50:26;;;;;;;14.90;1.65;;;;;;;;;;5033019;28;20024;-54
2021/01/13 10:52:55;;;;;;;19.35;2.47;;;;;;;;;;5033137;28;20082;-56
2021/01/13 10:55:23;;;;;;;18.17;2.42;;;;;;;;;;5033464;28;20064;-55
2021/01/13 10:57:51;;;;;;;21.60;2.38;;;;;;;;;;5032988;28;20037;-52
2021/01/13 11:00:18;;;;;;;17.13;1.80;;;;;;;;;;5033198;28;20014;-53
2021/01/13 11:02:56;;;;;;;16.45;2.00;;;;;;;;;;5032944;28;20026;-56
2021/01/13 11:05:23;;;;;;;14.55;2.35;;;;;;;;;;5033284;28;20028;-52
2021/01/13 11:07:51;;;;;;;24.52;2.05;;;;;;;;;;5033013;28;20457;-55
2021/01/13 11:10:22;;;;;;;24.58;2.38;;;;;;;;;;5033033;28;20028;-48
2021/01/13 11:13:05;;;;;;;26.65;2.55;;;;;;;;;;5033106;28;20014;-55
2021/01/13 11:15:32;;;;;;;18.98;2.47;;;;;;;;;;5033109;28;20024;-55
2021/01/13 11:17:59;;;;;;;32.45;2.65;;;;;;;;;;5032739;28;20041;-55
2021/01/13 11:20:30;;;;;;;15.63;2.08;;;;;;;;;;5033014;28;20018;-56
2021/01/13 11:22:58;;;;;;;23.38;3.10;;;;;;;;;;5032727;28;20489;-56
2021/01/13 11:25:39;;;;;;;14.30;2.00;;;;;;;;;;5032946;28;20031;-56
2021/01/13 11:28:10;;;;;;;28.58;2.35;;;;;;;;;;5032716;28;20029;-53
2021/01/13 11:30:38;;;;;;;20.42;2.72;;;;;;;;;;5032697;28;20022;-52
2021/01/13 11:33:06;;;;;;;21.98;3.65;;;;;;;;;;5032673;28;20022;-55
2021/01/13 11:35:38;;;;;;;24.48;2.95;;;;;;;;;;5032746;28;20437;-49
2021/01/13 11:38:23;;;;;;;21.73;3.05;;;;;;;;;;5014735;28;20032;-54
2021/01/13 11:40:59;;;;;;;25.50;2.80;;;;;;;;;;5032485;28;20029;-55
2021/01/13 11:43:44;;;;;;;34.38;3.25;;;;;;;;;;5032424;28;20500;-54
2021/01/13 11:46:14;;;;;;;21.60;2.58;;;;;;;;;;5032392;28;20033;-54
2021/01/13 11:48:51;;;;;;;29.02;4.28;;;;;;;;;;5032260;28;20017;-55
2021/01/13 11:51:18;;;;;;;34.75;3.95;;;;;;;;;;5032450;28;20025;-46
2021/01/13 11:53:48;;;;;;;35.67;3.08;;;;;;;;;;5032311;28;20026;-46
2021/01/13 11:56:15;;;;;;;36.85;3.83;;;;;;;;;;5031918;28;20033;-45
2021/01/13 11:58:48;;;;;;;25.42;2.92;;;;;;;;;;5032391;28;20064;-45
2021/01/13 12:01:15;;;;;;;24.23;2.95;;;;;;;;;;5032461;28;20030;-46
2021/01/13 12:03:42;;;;;;;26.88;3.80;;;;;;;;;;5032075;28;20124;-45
2021/01/13 12:06:10;;;;;;;29.05;3.83;;;;;;;;;;5032395;28;20025;-46
2021/01/13 12:08:37;;;;;;;30.83;4.32;;;;;;;;;;5032106;28;20022;-46
2021/01/13 12:11:04;;;;;;;27.52;3.90;;;;;;;;;;5032255;28;20033;-46
2021/01/13 12:13:32;;;;;;;38.70;5.00;;;;;;;;;;5032307;28;20026;-45
2021/01/13 12:16:06;;;;;;;25.25;3.75;;;;;;;;;;5032197;28;20009;-46
2021/01/13 12:18:35;;;;;;;22.95;2.83;;;;;;;;;;5032172;28;20022;-45
2021/01/13 12:21:14;;;;;;;34.53;4.25;;;;;;;;;;5032033;28;20075;-46
2021/01/13 12:23:42;;;;;;;32.42;3.28;;;;;;;;;;5032009;28;20030;-45
2021/01/13 12:26:27;;;;;;;33.88;3.83;;;;;;;;;;5032234;28;20029;-46
2021/01/13 12:28:55;;;;;;;24.75;3.80;;;;;;;;;;5031813;28;20105;-45
2021/01/13 12:31:25;;;;;;;33.58;3.35;;;;;;;;;;5032216;28;20026;-46
2021/01/13 12:33:58;;;;;;;38.25;3.88;;;;;;;;;;5031996;28;20025;-45
2021/01/13 12:36:38;;;;;;;26.20;3.67;;;;;;;;;;5032009;28;20481;-45
2021/01/13 12:39:07;;;;;;;33.45;3.85;;;;;;;;;;5031772;28;20026;-45
2021/01/13 12:41:35;;;;;;;39.75;4.35;;;;;;;;;;5014338;28;20037;-45
2021/01/13 12:44:03;;;;;;;42.50;3.67;;;;;;;;;;5031846;28;20099;-45
2021/01/13 12:46:31;;;;;;;32.88;3.92;;;;;;;;;;5031918;28;20028;-45
2021/01/13 12:48:59;;;;;;;39.50;3.80;;;;;;;;;;5031963;28;20064;-47
2021/01/13 12:51:26;;;;;;;24.02;4.00;;;;;;;;;;5031869;28;20022;-46
2021/01/13 12:53:57;;;;;;;34.05;3.28;;;;;;;;;;5010262;28;20053;-45
2021/01/13 12:56:37;;;;;;;37.35;4.70;;;;;;;;;;5011862;28;20096;-45
2021/01/13 12:59:04;;;;;;;24.35;3.78;;;;;;;;;;5012210;28;20045;-47
2021/01/13 13:01:41;;;;;;;36.85;4.35;;;;;;;;;;5012033;28;20026;-46
2021/01/13 13:04:08;;;;;;;23.25;4.68;;;;;;;;;;5005031;28;20399;-50
2021/01/13 13:06:36;;;;;;;40.22;4.88;;;;;;;;;;5011416;28;20068;-48
2021/01/13 13:09:04;;;;;;;51.72;5.55;;;;;;;;;;5013448;28;20030;-50
2021/01/13 13:11:32;;;;;;;32.30;4.65;;;;;;;;;;5014667;28;20029;-46
2021/01/13 13:13:59;;;;;;;48.08;5.40;;;;;;;;;;5014927;28;20073;-48
2021/01/13 13:16:27;;;;;;;33.67;4.95;;;;;;;;;;5014796;28;20029;-48
2021/01/13 13:18:55;;;;;;;28.10;4.07;;;;;;;;;;5014635;28;20025;-49
2021/01/13 13:21:23;;;;;;;36.58;4.03;;;;;;;;;;5014517;28;20054;-50
2021/01/13 13:23:50;;;;;;;35.97;4.05;;;;;;;;;;5013943;28;20064;-46
2021/01/13 13:26:18;;;;;;;16.88;3.17;;;;;;;;;;5012512;28;20025;-46
2021/01/13 13:28:45;;;;;;;26.77;3.92;;;;;;;;;;5013904;28;20010;-48
2021/01/13 13:31:14;;;;;;;29.58;4.00;;;;;;;;;;5013887;28;20397;-47
2021/01/13 13:33:41;;;;;;;18.48;3.08;;;;;;;;;;5014035;28;20508;-47
2021/01/13 13:36:09;;;;;;;22.13;3.65;;;;;;;;;;5013497;28;20490;-49
2021/01/13 13:38:36;;;;;;;25.17;4.07;;;;;;;;;;5013858;28;20037;-50
2021/01/13 13:41:04;;;;;;;38.55;3.95;;;;;;;;;;5013179;28;20501;-47
2021/01/13 13:43:31;;;;;;;21.25;3.88;;;;;;;;;;5013478;28;20096;-48
2021/01/13 13:45:58;;;;;;;31.90;4.50;;;;;;;;;;4999818;28;20022;-47
2021/01/13 13:48:25;;;;;;;46.25;5.22;;;;;;;;;;5008505;28;20064;-43
2021/01/13 13:50:59;;;;;;;56.38;4.70;;;;;;;;;;5005936;28;20018;-44
2021/01/13 13:53:27;;;;;;;43.83;5.40;;;;;;;;;;5015350;28;20049;-40
2021/01/13 13:55:55;;;;;;;43.85;6.50;;;;;;;;;;5030067;28;20036;-41
2021/01/13 13:58:25;;;;;;;48.80;7.78;;;;;;;;;;5031383;28;20367;-42
2021/01/13 14:00:54;;;;;;;52.95;6.65;;;;;;;;;;5032912;28;20050;-42
2021/01/13 14:03:21;;;;;;;49.47;5.80;;;;;;;;;;5031228;28;20449;-42
2021/01/13 14:05:48;;;;;;;43.60;6.47;;;;;;;;;;5031991;28;20469;-39
2021/01/13 14:08:15;;;;;;;45.38;5.55;;;;;;;;;;5028791;28;20028;-42
2021/01/13 14:10:42;;;;;;;42.00;5.28;;;;;;;;;;5031942;28;20140;-41
2021/01/13 14:13:10;;;;;;;32.40;4.57;;;;;;;;;;5031908;28;20505;-41
2021/01/13 14:15:37;;;;;;;60.40;5.28;;;;;;;;;;5031533;28;20029;-41
2021/01/13 14:18:04;;;;;;;59.03;5.78;;;;;;;;;;5031855;28;20021;-41
2021/01/13 14:20:31;;;;;;;31.55;5.57;;;;;;;;;;5029547;28;20496;-41
2021/01/13 14:22:58;;;;;;;41.92;5.15;;;;;;;;;;5032739;28;20100;-41
2021/01/13 14:25:25;;;;;;;37.97;5.47;;;;;;;;;;5032831;28;20022;-41
2021/01/13 14:27:52;;;;;;;34.08;4.55;;;;;;;;;;5032628;28;20158;-41
2021/01/13 14:30:19;;;;;;;40.25;4.72;;;;;;;;;;5014903;28;20389;-42
2021/01/13 14:32:50;;;;;;;47.53;5.10;;;;;;;;;;5032928;28;20381;-41
2021/01/13 14:35:17;;;;;;;38.97;4.85;;;;;;;;;;5032782;28;20030;-41
2021/01/13 14:37:45;;;;;;;36.70;4.55;;;;;;;;;;5032604;28;20072;-42
2021/01/13 14:40:12;;;;;;;45.28;5.90;;;;;;;;;;5032843;28;20032;-42
2021/01/13 14:42:39;;;;;;;42.72;4.95;;;;;;;;;;5026129;28;20026;-42
2021/01/13 14:45:07;;;;;;;28.40;4.72;;;;;;;;;;5025319;28;20033;-41
2021/01/13 14:47:34;;;;;;;45.03;5.30;;;;;;;;;;5032740;28;20013;-39
2021/01/13 14:50:01;;;;;;;33.45;4.47;;;;;;;;;;5016883;28;20513;-39
2021/01/13 14:52:28;;;;;;;27.58;5.25;;;;;;;;;;5029616;28;20156;-39
2021/01/13 14:54:55;;;;;;;32.60;4.97;;;;;;;;;;5032477;28;20068;-40